createdAt,value
2022-08-21T00:01:26.000Z,0.00
2022-08-21T00:06:20.000Z,0.00
2022-08-21T00:11:15.000Z,0.00
2022-08-21T00:16:09.000Z,0.00
2022-08-21T00:21:03.000Z,0.00
2022-08-21T00:25:58.000Z,0.00
2022-08-21T00:30:52.000Z,0.00
2022-08-21T00:35:47.000Z,0.00
2022-08-21T00:40:41.000Z,0.00
2022-08-21T00:45:35.000Z,0.00
2022-08-21T00:50:29.000Z,0.00
2022-08-21T00:55:23.000Z,0.00
2022-08-21T01:00:18.000Z,0.00
2022-08-21T01:05:12.000Z,0.00
2022-08-21T01:10:07.000Z,0.00
2022-08-21T01:15:01.000Z,0.00
2022-08-21T01:19:55.000Z,0.00
2022-08-21T01:24:49.000Z,0.00
2022-08-21T01:29:44.000Z,0.00
2022-08-21T01:34:39.000Z,0.00
2022-08-21T01:39:33.000Z,0.00
2022-08-21T01:44:27.000Z,0.00
2022-08-21T01:49:21.000Z,0.00
2022-08-21T01:54:15.000Z,0.00
2022-08-21T01:59:09.000Z,0.00
2022-08-21T02:04:04.000Z,0.00
2022-08-21T02:08:58.000Z,0.00
2022-08-21T02:13:52.000Z,0.00
2022-08-21T02:18:46.000Z,0.00
2022-08-21T02:23:40.000Z,0.00
2022-08-21T02:28:35.000Z,0.00
2022-08-21T02:33:29.000Z,0.00
2022-08-21T02:38:23.000Z,0.00
2022-08-21T02:43:18.000Z,0.00
2022-08-21T02:48:12.000Z,0.00
2022-08-21T02:53:06.000Z,0.00
2022-08-21T02:58:01.000Z,0.00
2022-08-21T03:02:56.000Z,0.00
2022-08-21T03:07:49.000Z,0.00
2022-08-21T03:12:43.000Z,0.00
2022-08-21T03:17:38.000Z,0.00
2022-08-21T03:22:32.000Z,0.00
2022-08-21T03:27:26.000Z,0.00
2022-08-21T03:32:20.000Z,0.00
2022-08-21T03:37:15.000Z,0.00
2022-08-21T03:42:09.000Z,0.00
2022-08-21T03:47:04.000Z,0.00
2022-08-21T03:51:58.000Z,0.00
2022-08-21T03:56:52.000Z,0.00
2022-08-21T04:01:47.000Z,0.00
2022-08-21T04:06:42.000Z,1.67
2022-08-21T04:11:36.000Z,3.33
2022-08-21T04:16:30.000Z,7.50
2022-08-21T04:21:22.000Z,15.00
2022-08-21T04:26:17.000Z,27.50
2022-08-21T04:31:11.000Z,47.50
2022-08-21T04:36:06.000Z,74.17
2022-08-21T04:41:00.000Z,106.67
2022-08-21T04:45:52.000Z,136.67
2022-08-21T04:50:46.000Z,168.33
2022-08-21T04:55:40.000Z,200.00
2022-08-21T05:00:35.000Z,233.33
2022-08-21T05:05:30.000Z,265.00
2022-08-21T05:10:24.000Z,295.00
2022-08-21T05:15:18.000Z,325.83
2022-08-21T05:20:12.000Z,356.67
2022-08-21T05:25:07.000Z,385.83
2022-08-21T05:30:02.000Z,412.50
2022-08-21T05:34:56.000Z,437.50
2022-08-21T05:39:48.000Z,460.83
2022-08-21T05:44:43.000Z,481.67
2022-08-21T05:49:37.000Z,502.50
2022-08-21T05:54:32.000Z,522.50
2022-08-21T05:59:26.000Z,541.67
2022-08-21T06:04:20.000Z,560.83
2022-08-21T06:09:15.000Z,578.33
2022-08-21T06:14:09.000Z,595.83
2022-08-21T06:19:04.000Z,610.00
2022-08-21T06:23:58.000Z,623.33
2022-08-21T06:28:52.000Z,635.83
2022-08-21T06:33:47.000Z,647.50
2022-08-21T06:38:42.000Z,660.00
2022-08-21T06:43:37.000Z,672.50
2022-08-21T06:48:31.000Z,682.50
2022-08-21T06:53:26.000Z,692.50
2022-08-21T06:58:18.000Z,704.17
2022-08-21T07:03:13.000Z,718.33
2022-08-21T07:08:07.000Z,732.50
2022-08-21T07:13:02.000Z,747.50
2022-08-21T07:17:57.000Z,762.50
2022-08-21T07:22:51.000Z,775.83
2022-08-21T07:27:45.000Z,786.67
2022-08-21T07:32:39.000Z,800.83
2022-08-21T07:37:34.000Z,807.50
2022-08-21T07:42:29.000Z,819.17
2022-08-21T07:47:23.000Z,835.83
2022-08-21T07:52:18.000Z,856.67
2022-08-21T07:57:13.000Z,876.67
2022-08-21T08:02:08.000Z,904.17
2022-08-21T08:07:02.000Z,934.17
2022-08-21T08:11:56.000Z,973.33
2022-08-21T08:16:49.000Z,1020.00
2022-08-21T08:21:44.000Z,1045.00
2022-08-21T08:26:39.000Z,1077.50
2022-08-21T08:31:34.000Z,1119.17
2022-08-21T08:36:28.000Z,1164.17
2022-08-21T08:41:21.000Z,1240.83
2022-08-21T08:46:16.000Z,1305.83
2022-08-21T08:51:10.000Z,1350.00
2022-08-21T08:56:04.000Z,1405.00
2022-08-21T09:00:59.000Z,1473.33
2022-08-21T09:05:56.000Z,1516.67
2022-08-21T09:10:49.000Z,1551.67
2022-08-21T09:15:44.000Z,1653.33
2022-08-21T09:20:39.000Z,1709.17
2022-08-21T09:25:33.000Z,1855.83
2022-08-21T09:30:28.000Z,1911.67
2022-08-21T09:35:22.000Z,3423.33
2022-08-21T09:40:17.000Z,4567.50
2022-08-21T09:45:13.000Z,5186.67
2022-08-21T09:50:10.000Z,5426.67
2022-08-21T09:55:05.000Z,3968.33
2022-08-21T10:00:00.000Z,5682.50
2022-08-21T10:04:55.000Z,5669.17
2022-08-21T10:09:51.000Z,5955.00
2022-08-21T10:14:47.000Z,6130.00
2022-08-21T10:19:42.000Z,6289.17
2022-08-21T10:24:38.000Z,6422.50
2022-08-21T10:29:33.000Z,6492.50
2022-08-21T10:34:27.000Z,6602.50
2022-08-21T10:39:20.000Z,6382.50
2022-08-21T10:44:15.000Z,6527.50
2022-08-21T10:49:09.000Z,6720.00
2022-08-21T10:54:04.000Z,6751.67
2022-08-21T10:58:59.000Z,7009.17
2022-08-21T11:03:52.000Z,7200.00
2022-08-21T11:08:46.000Z,7325.00
2022-08-21T11:13:42.000Z,7432.50
2022-08-21T11:18:39.000Z,7560.83
2022-08-21T11:23:31.000Z,7556.67
2022-08-21T11:28:26.000Z,7329.17
2022-08-21T11:33:21.000Z,7608.33
2022-08-21T11:38:16.000Z,7820.00
2022-08-21T11:43:11.000Z,8229.17
2022-08-21T11:48:06.000Z,8087.50
2022-08-21T11:53:02.000Z,7960.00
2022-08-21T11:57:57.000Z,7902.50
2022-08-21T12:02:52.000Z,7748.33
2022-08-21T12:07:46.000Z,7747.50
2022-08-21T12:12:40.000Z,8290.00
2022-08-21T12:17:35.000Z,8120.00
2022-08-21T12:22:30.000Z,8160.00
2022-08-21T12:27:25.000Z,8199.17
2022-08-21T12:32:20.000Z,8862.50
2022-08-21T12:37:15.000Z,9084.17
2022-08-21T12:42:10.000Z,9294.17
2022-08-21T12:47:06.000Z,9226.67
2022-08-21T12:52:02.000Z,8737.50
2022-08-21T12:56:56.000Z,9018.33
2022-08-21T13:01:51.000Z,9188.33
2022-08-21T13:06:46.000Z,9423.33
2022-08-21T13:11:41.000Z,9700.83
2022-08-21T13:16:36.000Z,9681.67
2022-08-21T13:21:31.000Z,9798.33
2022-08-21T13:26:25.000Z,9520.83
2022-08-21T13:31:20.000Z,9809.17
2022-08-21T13:36:15.000Z,10156.67
2022-08-21T13:41:10.000Z,10571.67
2022-08-21T13:46:05.000Z,10234.17
2022-08-21T13:51:00.000Z,10196.67
2022-08-21T13:55:52.000Z,10485.83
2022-08-21T14:00:46.000Z,9126.67
2022-08-21T14:05:40.000Z,9597.50
2022-08-21T14:10:35.000Z,10299.17
2022-08-21T14:15:30.000Z,10422.50
2022-08-21T14:20:25.000Z,10600.83
2022-08-21T14:25:19.000Z,10549.17
2022-08-21T14:30:14.000Z,10565.83
2022-08-21T14:35:08.000Z,10490.00
2022-08-21T14:40:03.000Z,10527.50
2022-08-21T14:44:55.000Z,10507.50
2022-08-21T14:49:50.000Z,10376.67
2022-08-21T14:54:45.000Z,10063.33
2022-08-21T14:59:39.000Z,10193.33
2022-08-21T15:04:34.000Z,9876.67
2022-08-21T15:09:29.000Z,9426.67
2022-08-21T15:14:23.000Z,10427.50
2022-08-21T15:19:18.000Z,5498.33
2022-08-21T15:24:12.000Z,6121.67
2022-08-21T15:29:06.000Z,4862.50
2022-08-21T15:33:59.000Z,5245.83
2022-08-21T15:38:53.000Z,4126.67
2022-08-21T15:43:46.000Z,3480.00
2022-08-21T15:48:40.000Z,4065.00
2022-08-21T15:53:33.000Z,2756.67
2022-08-21T15:58:27.000Z,2716.67
2022-08-21T16:03:21.000Z,3253.33
2022-08-21T16:08:15.000Z,2114.17
2022-08-21T16:13:09.000Z,2332.50
2022-08-21T16:18:03.000Z,2416.67
2022-08-21T16:22:56.000Z,1871.67
2022-08-21T16:27:50.000Z,1665.00
2022-08-21T16:32:43.000Z,2107.50
2022-08-21T16:37:38.000Z,2737.50
2022-08-21T16:42:32.000Z,1505.83
2022-08-21T16:47:25.000Z,1283.33
2022-08-21T16:52:19.000Z,1123.33
2022-08-21T16:57:13.000Z,994.17
2022-08-21T17:02:07.000Z,902.50
2022-08-21T17:07:01.000Z,786.67
2022-08-21T17:11:55.000Z,696.67
2022-08-21T17:16:50.000Z,631.67
2022-08-21T17:21:44.000Z,577.50
2022-08-21T17:26:38.000Z,535.00
2022-08-21T17:31:33.000Z,505.00
2022-08-21T17:36:25.000Z,485.00
2022-08-21T17:41:20.000Z,476.67
2022-08-21T17:46:14.000Z,501.67
2022-08-21T17:51:09.000Z,629.17
2022-08-21T17:56:03.000Z,394.17
2022-08-21T18:00:58.000Z,324.17
2022-08-21T18:05:52.000Z,247.50
2022-08-21T18:10:47.000Z,180.83
2022-08-21T18:15:41.000Z,129.17
2022-08-21T18:20:36.000Z,91.67
2022-08-21T18:25:30.000Z,64.17
2022-08-21T18:30:24.000Z,43.33
2022-08-21T18:35:19.000Z,28.33
2022-08-21T18:40:14.000Z,18.33
2022-08-21T18:45:08.000Z,11.67
2022-08-21T18:50:03.000Z,6.67
2022-08-21T18:54:57.000Z,3.33
2022-08-21T18:59:50.000Z,1.67
2022-08-21T19:04:45.000Z,0.00
2022-08-21T19:09:40.000Z,0.00
2022-08-21T19:14:35.000Z,0.00
2022-08-21T19:19:32.000Z,0.00
2022-08-21T19:24:24.000Z,0.00
2022-08-21T19:29:18.000Z,0.00
2022-08-21T19:34:13.000Z,0.00
2022-08-21T19:39:08.000Z,0.00
2022-08-21T19:44:02.000Z,0.00
2022-08-21T19:48:56.000Z,0.00
2022-08-21T19:53:51.000Z,0.00
2022-08-21T19:58:46.000Z,0.00
2022-08-21T20:03:40.000Z,0.00
2022-08-21T20:08:34.000Z,0.00
2022-08-21T20:13:28.000Z,0.00
2022-08-21T20:18:22.000Z,0.00
2022-08-21T20:23:16.000Z,0.00
2022-08-21T20:28:11.000Z,0.00
2022-08-21T20:33:06.000Z,0.00
2022-08-21T20:38:00.000Z,0.00
2022-08-21T20:42:52.000Z,0.00
2022-08-21T20:47:47.000Z,0.00
2022-08-21T20:52:42.000Z,0.00
2022-08-21T20:57:37.000Z,0.00
2022-08-21T21:02:30.000Z,0.00
2022-08-21T21:07:23.000Z,0.00
2022-08-21T21:12:18.000Z,0.00
2022-08-21T21:17:13.000Z,0.00
2022-08-21T21:22:07.000Z,0.00
2022-08-21T21:27:02.000Z,0.00
2022-08-21T21:31:59.000Z,0.00
2022-08-21T21:36:51.000Z,0.00
2022-08-21T21:41:45.000Z,0.00
2022-08-21T21:46:40.000Z,0.00
2022-08-21T21:51:35.000Z,0.00
2022-08-21T21:56:29.000Z,0.00
2022-08-21T22:01:23.000Z,0.00
2022-08-21T22:06:18.000Z,0.00
2022-08-21T22:11:12.000Z,0.00
2022-08-21T22:16:07.000Z,0.00
2022-08-21T22:21:02.000Z,0.00
2022-08-21T22:25:56.000Z,0.00
2022-08-21T22:30:51.000Z,0.00
2022-08-21T22:35:44.000Z,0.00
2022-08-21T22:40:39.000Z,0.00
2022-08-21T22:45:34.000Z,0.00
2022-08-21T22:50:29.000Z,0.00
2022-08-21T22:55:23.000Z,0.00
2022-08-21T23:00:18.000Z,0.00
2022-08-21T23:05:13.000Z,0.00
2022-08-21T23:10:08.000Z,0.00
2022-08-21T23:15:03.000Z,0.00
2022-08-21T23:19:58.000Z,0.00
2022-08-21T23:24:52.000Z,0.00
2022-08-21T23:29:47.000Z,0.00
2022-08-21T23:34:42.000Z,0.00
2022-08-21T23:39:37.000Z,0.00
2022-08-21T23:44:31.000Z,0.00
2022-08-21T23:49:26.000Z,0.00
2022-08-21T23:54:20.000Z,0.00
2022-08-21T23:59:15.000Z,0.00
